LiveATC.Net - Listen to live air traffic control over the Internet!


ICAO: RJSF  IATA: FKS   Airport: Fukushima Airport
City: Sukagawa
Country: Japan   Continent: Asia
RJSF METAR Weather: RJSF 040200Z VRB05KT 9999 FEW030 25/20 Q1007
RJSF Flight Activity (FlightAware)
RJSF Webcam:  (Airport Webcams) 

RJSF RDO
Feed Status: UP   Listeners: 10
Listen in your browser - HTML5 player (in browser, HTML5)
Click here to listen with your own player (launches your MP3 player)
Archive Access: RJSF RDO
FacilityFrequency
Fukushima Radio118.050

NOTICE

Unauthorized use prohibited. See LiveATC.net Terms of Service


Airport/ARTCC Code
Frequency Search
(e.g., 124.400, 128.75)
Site-wide search
 


Browse Feeds
Top 50 Feeds
Coverage Map
Bad Weather Areas

LiveATC FAQ
Offer LiveATC feed
Contact LiveATC.net
Press Inquiries

LiveATC on iPhone
LiveATC on Android

Windows Phone
Windows 8/10

LiveATC Mobile
(Mobile browser)

ATC Audio Archives
Interesting Recordings

LiveATC Forums


Home Page
About LiveATC.net
Make a Donation
Terms of Use
Privacy Policy

Canadian Air Freqs

AIRMETs/SIGMETs

FAA Airport Status
Nat'l Airspace Status
Arrival Demand Charts


Server Software By:
Icecast.org
Liquidsoap